Time;durP1;ratioP1;P1;durP2;ratioP2;P2;SDS_P1;SDS_P2;PMS_P1;PMS_P2;Temp;Humidity;BMP_temperature;BMP_pressure;BME280_temperature;BME280_humidity;BME280_pressure;Samples;Min_cycle;Max_cycle;Signal;HPM_P1;HPM_P2
2022/01/03 00:02:23;;;;;;;10.07;3.13;;;8.50;99.90;;;;;;5105165;28;20104;-78
2022/01/03 00:04:49;;;;;;;11.30;2.67;;;8.60;99.90;;;;;;5105183;28;20048;-78
2022/01/03 00:07:16;;;;;;;6.57;2.55;;;8.70;99.90;;;;;;5085736;28;20491;-78
2022/01/03 00:09:41;;;;;;;12.48;2.67;;;8.70;99.90;;;;;;5085819;28;20462;-78
2022/01/03 00:12:08;;;;;;;11.95;3.03;;;8.70;99.90;;;;;;5105004;28;20044;-78
2022/01/03 00:14:35;;;;;;;15.63;3.13;;;8.70;99.90;;;;;;5086152;28;20044;-78
2022/01/03 00:17:00;;;;;;;8.30;2.92;;;8.80;99.90;;;;;;5104179;28;20135;-78
2022/01/03 00:19:26;;;;;;;9.52;3.13;;;8.80;99.90;;;;;;5104350;28;20040;-78
2022/01/03 00:21:56;;;;;;;10.57;2.67;;;8.90;99.90;;;;;;5082557;28;20040;-78
2022/01/03 00:24:33;;;;;;;9.27;3.40;;;9.00;99.90;;;;;;5085822;28;20048;-78
2022/01/03 00:27:14;;;;;;;9.93;2.60;;;9.10;99.90;;;;;;5088990;28;20051;-78
2022/01/03 00:29:59;;;;;;;15.43;2.75;;;9.10;99.90;;;;;;5088877;28;20487;-78
2022/01/03 00:32:28;;;;;;;13.85;2.85;;;9.10;99.90;;;;;;5090467;28;20396;-77
2022/01/03 00:34:55;;;;;;;13.43;2.63;;;9.20;99.90;;;;;;5089832;28;20067;-77
2022/01/03 00:37:23;;;;;;;10.98;2.70;;;9.10;99.90;;;;;;5089888;28;20400;-78
2022/01/03 00:39:50;;;;;;;9.38;2.22;;;9.10;99.90;;;;;;5108825;28;20468;-77
2022/01/03 00:42:16;;;;;;;16.27;2.67;;;9.20;99.90;;;;;;5073877;28;20107;-77
2022/01/03 00:44:42;;;;;;;12.80;2.75;;;9.30;99.90;;;;;;5089262;28;20075;-77
2022/01/03 00:47:10;;;;;;;12.07;2.35;;;9.30;99.90;;;;;;5106931;28;20089;-77
2022/01/03 00:49:40;;;;;;;11.70;2.40;;;9.30;99.90;;;;;;5108421;28;20052;-77
2022/01/03 00:52:05;;;;;;;11.17;2.63;;;9.30;99.90;;;;;;5089096;28;20071;-77
2022/01/03 00:54:31;;;;;;;17.90;3.67;;;9.30;99.90;;;;;;5107187;28;20047;-77
2022/01/03 00:57:04;;;;;;;13.23;2.75;;;9.30;99.90;;;;;;5089036;28;20099;-77
2022/01/03 00:59:46;;;;;;;16.95;2.78;;;9.40;99.90;;;;;;5088186;28;20113;-77
2022/01/03 01:02:13;;;;;;;17.63;3.20;;;9.40;99.90;;;;;;5088899;28;20613;-77
2022/01/03 01:04:44;;;;;;;16.30;3.65;;;9.40;99.90;;;;;;5089121;28;20084;-77
2022/01/03 01:07:11;;;;;;;19.60;3.20;;;9.40;99.90;;;;;;5089003;28;20220;-77
2022/01/03 01:09:39;;;;;;;14.20;3.08;;;9.50;99.90;;;;;;5106832;28;20207;-76
2022/01/03 01:12:06;;;;;;;24.98;3.72;;;9.50;99.90;;;;;;5089014;28;20040;-77
2022/01/03 01:14:33;;;;;;;18.63;3.17;;;9.50;99.90;;;;;;5084530;28;20055;-77
2022/01/03 01:16:58;;;;;;;20.02;3.60;;;9.50;99.90;;;;;;5088873;28;20052;-77
2022/01/03 01:19:27;;;;;;;19.05;3.85;;;9.50;99.90;;;;;;5089075;28;20071;-77
2022/01/03 01:21:53;;;;;;;16.67;3.35;;;9.50;99.90;;;;;;5088548;28;20074;-76
2022/01/03 01:24:22;;;;;;;21.85;3.97;;;9.50;99.90;;;;;;5088355;28;20105;-76
2022/01/03 01:29:38;;;;;;;17.00;3.20;;;9.50;99.90;;;;;;5081903;28;20055;-77
2022/01/03 01:32:06;;;;;;;17.38;3.83;;;9.50;99.90;;;;;;5088970;28;20078;-77
2022/01/03 01:34:38;;;;;;;16.50;3.53;;;9.50;99.90;;;;;;5088295;28;20051;-77
2022/01/03 01:37:04;;;;;;;18.05;3.63;;;9.40;99.90;;;;;;5088744;28;20109;-77
2022/01/03 01:39:30;;;;;;;21.35;4.13;;;9.50;99.90;;;;;;5087931;28;20050;-76
2022/01/03 01:42:00;;;;;;;19.63;3.72;;;9.50;99.90;;;;;;5071694;28;20078;-76
2022/01/03 01:44:26;;;;;;;20.13;4.10;;;9.40;99.90;;;;;;5107648;28;20071;-77
2022/01/03 01:46:55;;;;;;;18.75;3.20;;;9.40;99.90;;;;;;5071776;28;20044;-77
2022/01/03 01:49:25;;;;;;;23.10;3.40;;;9.50;99.90;;;;;;5087675;28;20052;-76
2022/01/03 01:52:02;;;;;;;24.23;3.90;;;9.50;99.90;;;;;;5085591;28;20058;-77
2022/01/03 01:54:37;;;;;;;23.63;3.70;;;9.50;99.90;;;;;;5106582;28;20052;-76
2022/01/03 01:57:18;;;;;;;23.67;3.83;;;9.60;99.90;;;;;;5087864;28;20044;-77
2022/01/03 02:00:03;;;;;;;19.85;3.63;;;9.50;99.90;;;;;;5087364;28;20063;-77
2022/01/03 02:03:05;;;;;;;23.38;4.07;;;9.50;99.90;;;;;;5087747;28;20427;-77
2022/01/03 02:05:37;;;;;;;27.80;4.85;;;9.50;99.90;;;;;;5105054;28;20062;-76
2022/01/03 02:08:29;;;;;;;20.85;3.42;;;9.60;99.90;;;;;;5087847;28;20089;-77
2022/01/03 02:11:42;;;;;;;17.52;4.13;;;9.60;99.90;;;;;;5076608;28;20056;-76
2022/01/03 02:14:09;;;;;;;21.42;3.45;;;9.60;99.90;;;;;;5026868;28;20050;-76
2022/01/03 02:16:35;;;;;;;21.60;4.40;;;9.50;99.90;;;;;;5043563;28;20484;-76
2022/01/03 02:19:01;;;;;;;20.23;4.07;;;9.50;99.90;;;;;;5010053;28;20045;-76
2022/01/03 02:21:27;;;;;;;20.42;4.50;;;9.60;99.90;;;;;;5027343;28;20098;-76
2022/01/03 02:23:55;;;;;;;15.55;3.30;;;9.60;99.90;;;;;;5044205;28;20054;-76
2022/01/03 02:26:21;;;;;;;23.38;4.38;;;9.70;99.90;;;;;;5026942;28;20053;-76
2022/01/03 02:28:46;;;;;;;18.25;3.42;;;9.50;99.90;;;;;;5044161;28;20121;-77
2022/01/03 02:31:14;;;;;;;21.17;3.58;;;9.60;99.90;;;;;;5026749;28;20624;-76
2022/01/03 02:33:40;;;;;;;19.65;3.58;;;9.60;99.90;;;;;;5040197;28;20120;-76
2022/01/03 02:36:06;;;;;;;12.55;2.47;;;9.60;99.90;;;;;;5042762;28;20064;-77
2022/01/03 02:38:32;;;;;;;23.02;2.85;;;9.50;99.90;;;;;;5027052;28;20057;-77
2022/01/03 02:40:57;;;;;;;18.95;3.42;;;9.60;99.90;;;;;;5042506;28;20103;-77
2022/01/03 02:43:24;;;;;;;20.33;3.08;;;9.50;99.90;;;;;;5042722;28;20054;-77
2022/01/03 02:45:50;;;;;;;17.77;4.00;;;9.50;99.90;;;;;;5025918;28;20084;-77
2022/01/03 02:48:16;;;;;;;24.63;4.53;;;9.50;99.90;;;;;;5025822;28;20053;-77
2022/01/03 02:50:41;;;;;;;20.98;3.33;;;9.50;99.90;;;;;;5105772;28;20040;-77
2022/01/03 02:53:07;;;;;;;26.25;4.28;;;9.50;99.90;;;;;;5106433;28;20055;-77
2022/01/03 02:55:33;;;;;;;18.77;3.35;;;9.50;99.90;;;;;;5105966;28;20109;-77
2022/01/03 02:58:06;;;;;;;24.58;4.10;;;9.50;99.90;;;;;;5080763;28;20056;-77
2022/01/03 03:00:37;;;;;;;24.02;3.90;;;9.50;99.90;;;;;;5069299;28;20048;-77
2022/01/03 03:03:04;;;;;;;20.77;3.70;;;9.40;99.90;;;;;;5086234;28;20056;-77
2022/01/03 03:05:30;;;;;;;23.05;4.72;;;9.40;99.90;;;;;;5086129;28;20059;-76
2022/01/03 03:07:58;;;;;;;23.95;4.03;;;9.40;99.90;;;;;;5087075;28;20044;-77
2022/01/03 03:10:26;;;;;;;21.95;3.58;;;9.30;99.90;;;;;;5083030;28;20045;-76
2022/01/03 03:12:52;;;;;;;23.05;3.97;;;9.30;99.90;;;;;;5086601;28;20070;-76
2022/01/03 03:15:18;;;;;;;16.20;2.92;;;9.40;99.90;;;;;;5086570;28;20059;-77
2022/01/03 03:17:45;;;;;;;24.02;4.00;;;9.40;99.90;;;;;;5086526;28;20104;-76
2022/01/03 03:20:14;;;;;;;17.80;2.88;;;9.40;99.90;;;;;;5099911;28;20044;-77
2022/01/03 03:22:40;;;;;;;22.73;4.97;;;9.40;99.90;;;;;;5079861;28;20076;-76
2022/01/03 03:25:06;;;;;;;18.90;4.38;;;9.40;99.90;;;;;;5103952;28;20044;-77
2022/01/03 03:27:34;;;;;;;23.17;3.35;;;9.40;99.90;;;;;;5085809;28;20441;-77
2022/01/03 03:30:00;;;;;;;22.58;4.45;;;9.40;99.90;;;;;;5104069;28;20399;-76
2022/01/03 03:32:27;;;;;;;17.10;3.10;;;9.30;99.90;;;;;;5086817;28;20080;-76
2022/01/03 03:34:53;;;;;;;17.40;2.90;;;9.30;99.90;;;;;;5086570;28;20043;-77
2022/01/03 03:37:19;;;;;;;21.05;4.68;;;9.20;99.90;;;;;;5087411;28;20052;-76
2022/01/03 03:39:46;;;;;;;25.55;3.95;;;9.30;99.90;;;;;;5086918;28;20069;-76
2022/01/03 03:42:13;;;;;;;22.80;3.72;;;9.10;99.90;;;;;;5087248;28;20062;-76
2022/01/03 03:44:39;;;;;;;18.10;3.83;;;9.10;99.90;;;;;;5085917;28;20059;-77
2022/01/03 03:47:08;;;;;;;19.02;3.88;;;9.20;99.90;;;;;;5104357;28;20044;-76
2022/01/03 03:49:34;;;;;;;24.17;4.43;;;9.10;99.90;;;;;;5083787;28;20044;-76
2022/01/03 03:52:01;;;;;;;28.35;4.13;;;9.20;99.90;;;;;;5085917;28;20090;-76
2022/01/03 03:54:31;;;;;;;23.58;3.85;;;9.20;99.90;;;;;;5086012;28;20060;-76
2022/01/03 03:56:59;;;;;;;30.17;4.75;;;9.30;99.90;;;;;;5086022;28;20090;-76
2022/01/03 03:59:25;;;;;;;21.98;3.75;;;9.20;99.90;;;;;;5103179;28;20048;-76
2022/01/03 04:01:53;;;;;;;18.73;3.17;;;9.20;99.90;;;;;;5086026;28;20094;-76
2022/01/03 04:04:19;;;;;;;22.15;4.00;;;9.20;99.90;;;;;;5104011;28;20484;-77
2022/01/03 04:06:48;;;;;;;25.15;3.65;;;9.40;99.90;;;;;;5085407;28;20059;-76
2022/01/03 04:09:14;;;;;;;21.02;3.53;;;9.30;99.90;;;;;;5086074;28;20415;-76
2022/01/03 04:11:40;;;;;;;25.48;4.25;;;9.30;99.90;;;;;;5085232;28;20112;-76
2022/01/03 04:14:06;;;;;;;27.50;3.97;;;9.40;99.90;;;;;;5103693;28;20466;-76
2022/01/03 04:16:33;;;;;;;29.80;5.38;;;9.30;99.90;;;;;;5069033;28;20044;-76
2022/01/03 04:19:00;;;;;;;19.02;3.10;;;9.30;99.90;;;;;;5104720;28;20055;-76
2022/01/03 04:21:26;;;;;;;20.13;3.28;;;9.30;99.90;;;;;;5085221;28;20055;-76
2022/01/03 04:23:52;;;;;;;20.48;4.07;;;9.30;99.90;;;;;;5085483;28;20036;-77
2022/01/03 04:26:18;;;;;;;22.10;4.50;;;9.40;99.90;;;;;;5103666;28;20044;-76
2022/01/03 04:28:44;;;;;;;21.05;3.72;;;9.50;99.90;;;;;;5086889;28;20040;-76
2022/01/03 04:31:10;;;;;;;16.83;4.78;;;9.30;99.90;;;;;;5086235;28;20044;-76
2022/01/03 04:33:36;;;;;;;21.10;3.60;;;9.40;99.90;;;;;;5086703;28;20044;-76
2022/01/03 04:36:03;;;;;;;21.70;3.35;;;9.40;99.90;;;;;;5070332;28;20048;-76
2022/01/03 04:38:29;;;;;;;25.15;4.38;;;9.50;99.90;;;;;;5069801;28;20055;-76
2022/01/03 04:40:54;;;;;;;26.35;4.25;;;9.50;99.90;;;;;;5085464;28;20052;-76
2022/01/03 04:43:20;;;;;;;23.15;5.53;;;9.50;99.90;;;;;;5085364;28;20050;-76
2022/01/03 04:45:46;;;;;;;19.83;3.88;;;9.60;99.90;;;;;;5104023;28;20044;-76
2022/01/03 04:48:11;;;;;;;25.05;5.03;;;9.60;99.90;;;;;;5084878;28;20071;-76
2022/01/03 04:50:37;;;;;;;21.95;3.65;;;9.60;99.90;;;;;;5078746;28;20048;-76
2022/01/03 04:53:03;;;;;;;26.98;4.18;;;9.50;99.90;;;;;;5104369;28;20047;-76
2022/01/03 04:55:29;;;;;;;31.50;5.65;;;9.50;99.90;;;;;;5086514;28;20052;-76
2022/01/03 04:57:54;;;;;;;22.48;3.60;;;9.50;99.90;;;;;;5086424;28;20043;-76
2022/01/03 05:00:20;;;;;;;23.85;4.47;;;9.50;99.90;;;;;;5104232;28;20063;-76
2022/01/03 05:02:46;;;;;;;20.33;4.10;;;9.60;99.90;;;;;;5084942;28;20048;-76
2022/01/03 05:05:13;;;;;;;23.67;3.90;;;9.60;99.90;;;;;;5085583;28;20435;-76
2022/01/03 05:07:39;;;;;;;23.73;5.03;;;9.60;99.90;;;;;;5086351;28;20067;-76
2022/01/03 05:10:05;;;;;;;21.92;3.83;;;9.70;99.90;;;;;;5085804;28;20101;-76
2022/01/03 05:12:31;;;;;;;21.65;4.35;;;9.70;99.90;;;;;;5106081;28;20107;-76
2022/01/03 05:14:56;;;;;;;31.05;5.05;;;9.60;99.90;;;;;;5089463;28;20051;-76
2022/01/03 05:17:25;;;;;;;31.23;5.05;;;9.60;99.90;;;;;;5089430;28;20052;-76
2022/01/03 05:19:51;;;;;;;27.65;5.53;;;9.50;99.90;;;;;;5107067;28;20048;-76
2022/01/03 05:22:16;;;;;;;34.00;5.60;;;9.60;99.90;;;;;;5088193;28;20054;-76
2022/01/03 05:24:42;;;;;;;29.08;4.45;;;9.60;99.90;;;;;;5072608;28;20047;-76
2022/01/03 05:27:08;;;;;;;27.40;4.95;;;9.60;99.90;;;;;;5087644;28;20040;-76
2022/01/03 05:29:34;;;;;;;33.08;5.03;;;9.50;99.90;;;;;;5088972;28;20056;-76
2022/01/03 05:32:00;;;;;;;32.08;5.15;;;9.50;99.90;;;;;;5071225;28;20059;-76
2022/01/03 05:34:26;;;;;;;23.65;3.70;;;9.50;99.90;;;;;;5106590;28;20066;-76
2022/01/03 05:36:51;;;;;;;26.85;5.57;;;9.60;99.90;;;;;;5088097;28;20036;-76
2022/01/03 05:39:17;;;;;;;34.65;5.30;;;9.60;99.90;;;;;;5106492;28;20055;-76
2022/01/03 05:41:43;;;;;;;26.65;4.05;;;9.60;99.90;;;;;;5088939;28;20385;-76
2022/01/03 05:44:09;;;;;;;24.25;4.35;;;9.60;99.90;;;;;;5072014;28;20464;-76
2022/01/03 05:46:35;;;;;;;29.73;5.22;;;9.60;99.90;;;;;;5088212;28;20048;-76
2022/01/03 05:49:01;;;;;;;22.42;4.50;;;9.60;99.90;;;;;;5088218;28;20036;-76
2022/01/03 05:51:26;;;;;;;27.00;4.35;;;9.60;99.90;;;;;;5087831;28;20058;-76
2022/01/03 05:53:55;;;;;;;30.35;3.60;;;9.50;99.90;;;;;;5107067;28;20075;-76
2022/01/03 05:56:21;;;;;;;26.65;4.65;;;9.60;99.90;;;;;;5072318;28;20036;-76
2022/01/03 05:58:47;;;;;;;21.55;3.78;;;9.50;99.90;;;;;;5088110;28;20054;-76
2022/01/03 06:01:13;;;;;;;24.48;5.82;;;9.50;99.90;;;;;;5087752;28;20040;-76
2022/01/03 06:03:39;;;;;;;27.25;5.10;;;9.50;99.90;;;;;;5105546;28;20531;-77
2022/01/03 06:08:35;;;;;;;28.85;5.15;;;9.60;99.90;;;;;;5106395;28;20444;-76
2022/01/03 06:11:01;;;;;;;25.25;4.53;;;9.60;99.90;;;;;;5088890;28;20492;-76
2022/01/03 06:13:27;;;;;;;26.67;4.93;;;9.60;99.90;;;;;;5087197;28;20308;-76
2022/01/03 06:15:53;;;;;;;27.73;6.25;;;9.60;99.90;;;;;;5087531;28;20083;-76
2022/01/03 06:18:19;;;;;;;35.05;4.82;;;9.60;99.90;;;;;;5088054;28;20059;-76
2022/01/03 06:20:46;;;;;;;32.35;5.55;;;9.50;99.90;;;;;;5088116;28;20058;-76
2022/01/03 06:23:15;;;;;;;26.17;4.43;;;9.50;99.90;;;;;;5086005;28;20048;-76
2022/01/03 06:25:41;;;;;;;21.20;4.35;;;9.50;99.90;;;;;;5104749;28;20070;-76
2022/01/03 06:28:08;;;;;;;25.90;3.95;;;9.50;99.90;;;;;;5087825;28;20062;-76
2022/01/03 06:30:38;;;;;;;29.17;5.20;;;9.50;99.90;;;;;;5088553;28;20165;-77
2022/01/03 06:33:09;;;;;;;27.38;4.03;;;9.50;99.90;;;;;;5087014;28;20052;-76
2022/01/03 06:35:35;;;;;;;31.00;6.05;;;9.50;99.90;;;;;;5081892;28;20054;-76
2022/01/03 06:38:04;;;;;;;23.75;4.53;;;9.50;99.90;;;;;;5088413;28;20074;-76
2022/01/03 06:40:30;;;;;;;35.58;4.88;;;9.50;99.90;;;;;;5071473;28;20036;-76
2022/01/03 06:42:56;;;;;;;24.13;4.57;;;9.40;99.90;;;;;;5084024;28;20059;-76
2022/01/03 06:45:22;;;;;;;27.10;4.53;;;9.40;99.90;;;;;;5087096;28;20044;-76
2022/01/03 06:47:50;;;;;;;27.10;5.13;;;9.50;99.90;;;;;;5087065;28;20047;-76
2022/01/03 06:50:16;;;;;;;32.97;5.70;;;9.50;99.90;;;;;;5105469;28;20036;-76
2022/01/03 06:52:42;;;;;;;25.48;5.63;;;9.40;99.90;;;;;;5086542;28;20048;-76
2022/01/03 06:55:08;;;;;;;27.30;6.20;;;9.40;99.90;;;;;;5086880;28;20052;-76
2022/01/03 06:57:34;;;;;;;26.95;4.90;;;9.40;99.90;;;;;;5085122;28;20056;-76
2022/01/03 07:00:00;;;;;;;24.70;4.47;;;9.40;99.90;;;;;;5085380;28;20055;-76
2022/01/03 07:02:25;;;;;;;36.22;5.45;;;9.40;99.90;;;;;;5069497;28;20052;-76
2022/01/03 07:04:51;;;;;;;27.77;5.35;;;9.50;99.90;;;;;;5087565;28;20070;-76
2022/01/03 07:07:17;;;;;;;28.33;4.20;;;9.40;99.90;;;;;;5070122;28;20339;-76
2022/01/03 07:09:43;;;;;;;23.08;3.55;;;9.40;99.90;;;;;;5086617;28;20051;-76
2022/01/03 07:12:09;;;;;;;24.52;3.88;;;9.30;99.90;;;;;;5087331;28;20044;-76
2022/01/03 07:19:59;;;;;;;29.55;4.28;;;9.30;99.90;;;;;;5086463;28;20101;-76
2022/01/03 07:22:26;;;;;;;31.50;4.95;;;9.40;99.90;;;;;;5086455;28;20117;-76
2022/01/03 07:24:52;;;;;;;27.08;5.03;;;9.40;99.90;;;;;;5104162;28;20061;-76
2022/01/03 07:27:19;;;;;;;23.52;4.40;;;9.50;99.90;;;;;;5102967;28;20048;-76
2022/01/03 07:29:50;;;;;;;29.38;4.82;;;9.50;99.90;;;;;;5104582;28;20075;-76
2022/01/03 07:32:15;;;;;;;29.50;4.72;;;9.40;99.90;;;;;;5104405;28;20052;-76
2022/01/03 07:34:41;;;;;;;29.88;5.88;;;9.40;99.90;;;;;;5104895;28;20077;-76
2022/01/03 07:37:07;;;;;;;29.45;5.40;;;9.50;99.90;;;;;;5104807;28;20040;-76
2022/01/03 07:39:34;;;;;;;34.63;4.95;;;9.50;99.90;;;;;;5104292;28;20044;-76
2022/01/03 07:42:01;;;;;;;30.48;5.22;;;9.50;99.90;;;;;;5104631;28;20048;-76
2022/01/03 07:44:26;;;;;;;30.42;5.28;;;9.40;99.90;;;;;;5105341;28;20048;-76
2022/01/03 07:46:54;;;;;;;28.52;4.88;;;9.30;99.90;;;;;;5104334;28;20044;-76
2022/01/03 07:49:21;;;;;;;31.50;6.00;;;9.20;99.90;;;;;;5085563;28;20077;-75
2022/01/03 07:51:47;;;;;;;30.52;5.30;;;9.40;99.90;;;;;;5104396;28;20044;-76
2022/01/03 07:54:12;;;;;;;30.48;5.82;;;9.40;99.90;;;;;;5104892;28;20032;-76
2022/01/03 07:56:38;;;;;;;24.80;5.35;;;9.40;99.90;;;;;;5104647;28;20052;-76
2022/01/03 07:59:05;;;;;;;28.58;4.68;;;9.40;99.90;;;;;;5104281;28;20050;-76
2022/01/03 08:01:32;;;;;;;28.25;4.80;;;9.50;99.90;;;;;;5085463;28;20063;-76
2022/01/03 08:03:58;;;;;;;34.80;5.75;;;9.40;99.90;;;;;;5104744;28;20058;-76
2022/01/03 08:06:23;;;;;;;29.98;5.00;;;9.50;99.90;;;;;;5105221;28;20488;-76
2022/01/03 08:08:52;;;;;;;29.88;5.38;;;9.60;99.90;;;;;;5104669;28;20044;-76
2022/01/03 08:11:17;;;;;;;29.10;4.43;;;9.60;99.90;;;;;;5103907;28;20047;-76
2022/01/03 08:13:43;;;;;;;32.55;5.85;;;9.50;99.90;;;;;;5104028;28;20040;-76
2022/01/03 08:16:09;;;;;;;32.45;4.75;;;9.60;99.90;;;;;;5105027;28;20067;-76
2022/01/03 08:18:35;;;;;;;36.17;5.47;;;9.60;99.90;;;;;;5105026;28;20051;-75
2022/01/03 08:21:00;;;;;;;29.85;6.05;;;9.60;99.90;;;;;;5105030;28;20051;-75
2022/01/03 08:23:26;;;;;;;30.48;4.75;;;9.60;99.90;;;;;;5104054;28;20033;-75
2022/01/03 08:25:52;;;;;;;31.30;5.47;;;9.60;99.90;;;;;;5096568;28;20054;-76
2022/01/03 08:28:18;;;;;;;37.67;5.97;;;9.60;99.90;;;;;;5103919;28;20122;-76
2022/01/03 08:30:47;;;;;;;25.52;5.45;;;9.60;99.90;;;;;;5104104;28;20086;-76
2022/01/03 08:33:12;;;;;;;30.33;5.32;;;9.60;99.90;;;;;;5103455;28;20522;-75
2022/01/03 08:35:38;;;;;;;30.30;4.85;;;9.70;99.90;;;;;;5085071;28;20143;-75
2022/01/03 08:38:04;;;;;;;27.40;4.68;;;9.70;99.90;;;;;;5085421;28;20074;-76
2022/01/03 08:40:31;;;;;;;30.73;5.22;;;9.80;99.90;;;;;;5085378;28;20094;-75
2022/01/03 08:42:58;;;;;;;31.20;4.38;;;9.80;99.90;;;;;;5103633;28;20131;-76
2022/01/03 08:45:24;;;;;;;26.40;4.68;;;9.80;99.90;;;;;;5104899;28;20028;-76
2022/01/03 08:47:49;;;;;;;25.90;6.03;;;9.70;99.90;;;;;;5090787;28;20052;-75
2022/01/03 08:50:17;;;;;;;21.85;4.82;;;9.80;99.90;;;;;;5108011;28;20538;-76
2022/01/03 08:52:44;;;;;;;24.85;3.72;;;9.80;99.90;;;;;;5108509;28;20515;-75
2022/01/03 08:55:10;;;;;;;27.33;5.13;;;9.80;99.90;;;;;;5108285;28;20042;-75
2022/01/03 08:57:37;;;;;;;31.92;5.28;;;9.90;99.90;;;;;;5107896;28;20075;-75
2022/01/03 09:00:04;;;;;;;29.02;5.13;;;9.90;99.90;;;;;;5106901;28;20044;-76
2022/01/03 09:02:30;;;;;;;34.60;4.50;;;9.90;99.90;;;;;;5100993;28;20051;-76
2022/01/03 09:04:56;;;;;;;28.02;4.72;;;9.90;99.90;;;;;;5107096;28;20040;-76
2022/01/03 09:07:24;;;;;;;24.75;4.47;;;9.90;99.90;;;;;;5089772;28;20044;-76
2022/01/03 09:09:50;;;;;;;24.40;5.18;;;9.90;99.90;;;;;;5085729;28;20055;-76
2022/01/03 09:12:16;;;;;;;20.65;4.70;;;9.90;99.90;;;;;;5106408;28;20048;-76
2022/01/03 09:14:42;;;;;;;24.75;4.95;;;9.90;99.90;;;;;;5106527;28;20122;-76
2022/01/03 09:17:09;;;;;;;27.38;4.90;;;9.90;99.90;;;;;;5100260;28;20070;-76
2022/01/03 09:19:35;;;;;;;29.52;4.95;;;9.80;99.90;;;;;;5108233;28;20050;-76
2022/01/03 09:22:17;;;;;;;27.52;4.85;;;9.90;99.90;;;;;;5108314;28;20058;-76
2022/01/03 09:30:28;;;;;;;27.08;4.10;;;9.90;99.90;;;;;;4985685;28;20059;-76
2022/01/03 09:32:54;;;;;;;30.17;4.95;;;10.00;99.90;;;;;;4985845;28;20081;-76
2022/01/03 09:35:21;;;;;;;25.85;4.40;;;10.00;99.90;;;;;;4986626;28;20049;-75
2022/01/03 09:37:47;;;;;;;30.33;4.82;;;10.00;99.90;;;;;;4985153;28;20055;-75
2022/01/03 09:40:13;;;;;;;31.33;4.82;;;10.00;99.90;;;;;;4990244;28;20050;-75
2022/01/03 09:42:40;;;;;;;30.58;4.93;;;10.10;99.90;;;;;;4978607;28;20102;-76
2022/01/03 09:45:11;;;;;;;25.70;4.35;;;10.00;99.90;;;;;;4986753;28;20058;-76
2022/01/03 09:47:42;;;;;;;24.40;3.75;;;10.10;99.90;;;;;;4986594;28;20107;-76
2022/01/03 09:50:13;;;;;;;24.25;5.18;;;10.10;99.90;;;;;;4986489;28;23164;-76
2022/01/03 09:52:42;;;;;;;30.35;5.38;;;10.00;99.90;;;;;;4969008;28;20159;-75
2022/01/03 09:55:08;;;;;;;27.85;4.72;;;10.00;99.90;;;;;;4986134;28;20400;-75
2022/01/03 09:57:35;;;;;;;21.15;3.63;;;10.10;99.90;;;;;;4985787;28;20079;-76
2022/01/03 10:00:04;;;;;;;18.75;3.78;;;10.10;99.90;;;;;;4990986;28;20065;-76
2022/01/03 10:02:30;;;;;;;23.75;6.18;;;10.00;99.90;;;;;;5000395;28;20066;-76
2022/01/03 10:04:59;;;;;;;28.33;4.88;;;10.10;99.90;;;;;;5085495;28;20091;-70
2022/01/03 10:07:27;;;;;;;28.65;5.40;;;10.10;99.90;;;;;;5051280;28;20109;-71
2022/01/03 10:09:54;;;;;;;23.38;3.85;;;10.10;99.90;;;;;;5066036;28;20059;-71
2022/01/03 10:12:20;;;;;;;25.65;4.18;;;10.10;99.90;;;;;;5082664;28;20048;-71
2022/01/03 10:14:46;;;;;;;18.73;3.45;;;10.20;99.90;;;;;;5082395;28;20040;-71
2022/01/03 10:17:12;;;;;;;23.35;4.78;;;10.10;99.90;;;;;;5079316;28;20048;-72
2022/01/03 10:20:00;;;;;;;19.48;3.92;;;10.20;99.90;;;;;;5082144;28;20049;-73
2022/01/03 10:22:38;;;;;;;22.13;4.38;;;10.20;99.90;;;;;;5085137;28;20047;-73
2022/01/03 10:25:23;;;;;;;29.35;5.00;;;10.20;99.90;;;;;;5085074;28;20064;-72
2022/01/03 10:27:52;;;;;;;21.58;4.93;;;10.20;99.90;;;;;;5083686;28;20040;-73
2022/01/03 10:30:40;;;;;;;23.73;3.90;;;10.20;99.90;;;;;;5083759;28;20079;-72
2022/01/03 10:33:09;;;;;;;27.75;5.63;;;10.30;99.90;;;;;;5081451;28;20131;-71
2022/01/03 10:35:43;;;;;;;25.73;4.60;;;10.30;99.90;;;;;;5080279;28;20051;-71
2022/01/03 10:38:09;;;;;;;19.88;4.72;;;10.30;99.90;;;;;;5082609;28;20049;-72
2022/01/03 10:40:36;;;;;;;24.33;4.72;;;10.30;99.90;;;;;;5081833;28;20059;-71
2022/01/03 10:43:18;;;;;;;24.98;4.20;;;10.20;99.90;;;;;;5084938;28;20481;-71
2022/01/03 10:45:46;;;;;;;20.58;3.88;;;10.30;99.90;;;;;;5081611;28;20104;-71
2022/01/03 10:48:29;;;;;;;30.25;4.93;;;10.30;99.90;;;;;;5072978;28;20050;-69
2022/01/03 10:50:56;;;;;;;22.23;3.78;;;10.20;99.90;;;;;;5082107;28;20052;-70
2022/01/03 10:53:53;;;;;;;26.58;5.45;;;10.20;99.90;;;;;;5082555;28;20032;-70
2022/01/03 10:56:32;;;;;;;23.77;3.88;;;10.20;99.90;;;;;;5070400;28;20073;-74
2022/01/03 10:59:03;;;;;;;29.33;5.07;;;10.20;99.90;;;;;;5031564;28;20052;-69
2022/01/03 11:01:31;;;;;;;24.30;4.63;;;10.20;99.90;;;;;;5065006;28;20075;-69
2022/01/03 11:04:00;;;;;;;21.77;3.60;;;10.30;99.90;;;;;;5068885;28;20086;-69
2022/01/03 11:11:44;;;;;;;27.02;4.90;;;10.40;99.90;;;;;;5079162;28;20048;-69
2022/01/03 11:14:28;;;;;;;18.52;4.00;;;10.40;99.90;;;;;;5052675;28;20066;-69
2022/01/03 11:16:54;;;;;;;24.35;5.28;;;10.40;99.90;;;;;;5067895;28;20059;-69
2022/01/03 11:19:40;;;;;;;26.92;4.57;;;10.40;99.90;;;;;;5027144;28;20048;-69
2022/01/03 11:22:06;;;;;;;23.90;3.50;;;10.50;99.90;;;;;;5049025;28;20050;-69
2022/01/03 11:24:32;;;;;;;28.83;5.45;;;10.40;99.90;;;;;;5062066;28;20044;-69
2022/01/03 11:26:58;;;;;;;24.65;5.07;;;10.40;99.90;;;;;;5065152;28;20055;-67
2022/01/03 11:29:28;;;;;;;23.00;4.20;;;10.40;99.90;;;;;;5051468;28;20616;-66
2022/01/03 11:31:54;;;;;;;23.42;4.95;;;10.40;99.90;;;;;;5067942;28;20106;-69
2022/01/03 11:34:25;;;;;;;19.35;4.55;;;10.40;99.90;;;;;;5065826;28;20040;-69
2022/01/03 11:36:51;;;;;;;27.75;4.43;;;10.40;99.90;;;;;;5065692;28;20056;-71
2022/01/03 11:39:21;;;;;;;21.55;4.07;;;10.40;99.90;;;;;;5075572;28;20044;-69
2022/01/03 11:41:46;;;;;;;31.23;5.43;;;10.50;99.90;;;;;;5077807;28;20044;-69
2022/01/03 11:44:15;;;;;;;26.75;3.60;;;10.50;99.90;;;;;;5067910;28;20575;-69
2022/01/03 11:46:46;;;;;;;27.55;5.22;;;10.50;99.90;;;;;;5078102;28;20048;-71
2022/01/03 11:49:13;;;;;;;21.58;4.32;;;10.60;99.90;;;;;;5086925;28;20085;-66
2022/01/03 11:51:40;;;;;;;30.77;5.30;;;10.70;99.90;;;;;;5099946;28;20063;-66
2022/01/03 11:54:07;;;;;;;23.77;5.03;;;10.60;99.90;;;;;;5071695;28;20052;-70
2022/01/03 11:56:38;;;;;;;28.17;4.85;;;10.60;99.90;;;;;;5074996;28;20079;-69
2022/01/03 12:04:26;;;;;;;23.98;4.00;;;10.50;99.90;;;;;;5059267;28;20408;-70
2022/01/03 12:07:14;;;;;;;19.25;3.97;;;10.40;99.90;;;;;;5069779;28;20079;-70
2022/01/03 12:09:47;;;;;;;22.77;4.05;;;10.50;99.90;;;;;;5066095;28;20052;-70
2022/01/03 12:12:37;;;;;;;27.63;4.32;;;10.60;99.90;;;;;;5071011;28;20049;-70
2022/01/03 12:15:05;;;;;;;23.13;5.18;;;10.60;99.90;;;;;;5072190;28;20040;-69
2022/01/03 12:17:45;;;;;;;22.92;3.78;;;10.60;99.90;;;;;;5065980;28;20090;-69
2022/01/03 12:20:11;;;;;;;22.55;3.90;;;10.70;99.90;;;;;;5064731;28;20043;-69
2022/01/03 12:22:54;;;;;;;24.10;3.88;;;10.70;99.90;;;;;;5073654;28;20055;-69
2022/01/03 12:25:32;;;;;;;20.38;3.70;;;10.70;99.90;;;;;;5081658;28;20036;-69
2022/01/03 12:28:03;;;;;;;26.45;5.15;;;10.70;99.90;;;;;;5071038;28;20082;-69
2022/01/03 12:30:34;;;;;;;25.58;5.05;;;10.70;99.90;;;;;;5080322;28;20056;-68
2022/01/03 12:33:06;;;;;;;16.63;3.40;;;10.70;99.90;;;;;;5082779;28;20089;-70
2022/01/03 12:35:36;;;;;;;21.67;4.47;;;10.70;99.90;;;;;;5107500;28;20051;-70
2022/01/03 12:38:04;;;;;;;26.10;4.18;;;10.70;99.90;;;;;;5086998;28;20044;-70
2022/01/03 12:40:45;;;;;;;16.60;3.35;;;10.80;99.90;;;;;;5072320;28;20044;-75
2022/01/03 12:43:13;;;;;;;28.67;5.40;;;10.90;99.90;;;;;;5081693;28;20134;-72
2022/01/03 12:45:44;;;;;;;25.20;4.65;;;10.90;99.90;;;;;;5088368;28;20051;-70
2022/01/03 12:48:15;;;;;;;18.85;3.53;;;10.80;99.90;;;;;;5097086;28;20052;-70
2022/01/03 12:50:51;;;;;;;23.63;4.00;;;10.90;99.90;;;;;;5087287;28;20100;-70
2022/01/03 12:53:31;;;;;;;20.13;3.92;;;10.90;99.90;;;;;;5091696;27;20082;-70
2022/01/03 12:55:59;;;;;;;;;;;10.80;99.90;;;;;;5101441;28;20048;-70
2022/01/03 12:58:25;;;;;;;24.20;4.00;;;10.80;99.90;;;;;;5078018;28;19930;-69
2022/01/03 13:00:55;;;;;;;27.90;4.43;;;10.80;99.90;;;;;;5079143;28;20080;-69
2022/01/03 13:03:43;;;;;;;25.60;4.90;;;10.80;99.90;;;;;;5088868;27;20055;-69
2022/01/03 13:06:13;;;;;;;19.98;3.78;;;10.80;99.90;;;;;;5065873;28;20743;-69
2022/01/03 13:08:40;;;;;;;;;;;10.80;99.90;;;;;;5073173;28;20048;-70
2022/01/03 13:11:09;;;;;;;24.30;4.63;;;10.70;99.90;;;;;;5088216;28;19931;-70
2022/01/03 13:13:36;;;;;;;28.17;4.07;;;10.80;99.90;;;;;;5053646;28;20052;-70
2022/01/03 13:16:32;;;;;;;25.30;3.72;;;10.80;99.90;;;;;;5078659;28;20131;-77
2022/01/03 13:18:58;;;;;;;21.55;4.45;;;10.80;99.90;;;;;;5081481;28;20487;-70
2022/01/03 13:21:30;;;;;;;27.33;4.88;;;10.70;99.90;;;;;;5087309;28;20543;-71